createdAt,value
2019-02-26T00:01:00.482Z,2.80
2019-02-26T00:06:08.442Z,2.80
2019-02-26T00:11:26.705Z,2.80
2019-02-26T00:16:35.534Z,2.80
2019-02-26T00:21:43.023Z,2.80
2019-02-26T00:26:49.435Z,2.80
2019-02-26T00:31:59.367Z,2.90
2019-02-26T00:37:06.161Z,2.80
2019-02-26T00:42:12.010Z,2.90
2019-02-26T00:47:18.057Z,3.00
2019-02-26T00:52:24.543Z,3.00
2019-02-26T00:57:31.679Z,3.10
2019-02-26T01:02:38.110Z,3.20
2019-02-26T01:07:44.882Z,3.20
2019-02-26T01:12:50.403Z,3.20
2019-02-26T01:18:08.952Z,3.30
2019-02-26T01:23:16.464Z,3.30
2019-02-26T01:28:26.506Z,3.30
2019-02-26T01:33:35.796Z,3.30
2019-02-26T01:38:43.797Z,3.30
2019-02-26T01:43:48.189Z,3.30
2019-02-26T01:48:53.056Z,3.30
2019-02-26T01:54:00.777Z,3.40
2019-02-26T01:59:05.830Z,3.30
2019-02-26T02:04:12.788Z,3.30
2019-02-26T02:09:18.709Z,3.40
2019-02-26T02:14:24.006Z,3.40
2019-02-26T02:19:32.610Z,3.40
2019-02-26T02:24:34.030Z,3.40
2019-02-26T02:29:37.506Z,3.40
2019-02-26T02:34:43.031Z,3.40
2019-02-26T02:39:46.972Z,3.40
2019-02-26T02:44:53.533Z,3.40
2019-02-26T02:49:57.820Z,3.50
2019-02-26T02:55:04.396Z,3.40
2019-02-26T03:00:12.631Z,3.50
2019-02-26T03:05:16.610Z,3.50
2019-02-26T03:10:20.051Z,3.50
2019-02-26T03:15:24.609Z,3.50
2019-02-26T03:20:30.828Z,3.50
2019-02-26T03:25:33.577Z,3.50
2019-02-26T03:30:43.610Z,3.50
2019-02-26T03:35:42.890Z,3.60
2019-02-26T03:40:49.313Z,3.50
2019-02-26T03:45:52.733Z,3.60
2019-02-26T03:51:00.714Z,3.50
2019-02-26T03:56:04.268Z,3.60
2019-02-26T04:01:08.433Z,3.60
2019-02-26T04:06:12.258Z,3.60
2019-02-26T04:11:16.840Z,3.70
2019-02-26T04:16:21.070Z,3.60
2019-02-26T04:21:24.620Z,3.60
2019-02-26T04:26:35.069Z,3.60
2019-02-26T04:31:54.659Z,3.60
2019-02-26T04:37:07.199Z,3.60
2019-02-26T04:42:18.218Z,3.60
2019-02-26T04:47:24.210Z,3.60
2019-02-26T04:52:29.573Z,3.60
2019-02-26T04:57:34.671Z,3.50
2019-02-26T05:02:38.041Z,3.50
2019-02-26T05:07:44.292Z,3.40
2019-02-26T05:12:47.700Z,3.40
2019-02-26T05:17:51.046Z,3.40
2019-02-26T05:22:58.473Z,3.30
2019-02-26T05:28:03.743Z,3.20
2019-02-26T05:33:06.995Z,3.10
2019-02-26T05:38:11.394Z,3.00
2019-02-26T05:43:15.941Z,2.90
2019-02-26T05:48:23.023Z,2.80
2019-02-26T05:53:24.409Z,2.80
2019-02-26T05:58:27.782Z,2.80
2019-02-26T06:03:33.668Z,2.70
2019-02-26T06:08:39.327Z,2.80
2019-02-26T06:13:43.634Z,2.80
2019-02-26T06:18:48.849Z,2.80
2019-02-26T06:23:52.498Z,2.90
2019-02-26T06:28:56.887Z,2.90
2019-02-26T06:34:03.558Z,2.90
2019-02-26T06:39:09.708Z,3.00
2019-02-26T06:44:13.053Z,3.20
2019-02-26T06:49:17.821Z,3.40
2019-02-26T06:54:22.683Z,3.50
2019-02-26T06:59:34.959Z,3.60
2019-02-26T07:04:39.578Z,3.70
2019-02-26T07:09:43.885Z,3.90
2019-02-26T07:14:48.414Z,4.00
2019-02-26T07:19:53.829Z,4.20
2019-02-26T07:24:59.450Z,4.30
2019-02-26T07:30:03.120Z,4.40
2019-02-26T07:35:11.063Z,4.50
2019-02-26T07:40:18.576Z,4.60
2019-02-26T07:45:22.411Z,4.70
2019-02-26T07:50:31.179Z,4.90
2019-02-26T07:55:32.822Z,5.00
2019-02-26T08:00:37.698Z,5.10
2019-02-26T08:05:44.016Z,5.20
2019-02-26T08:10:48.857Z,5.40
2019-02-26T08:15:54.967Z,5.60
2019-02-26T08:21:00.747Z,5.90
2019-02-26T08:26:03.371Z,6.20
2019-02-26T08:31:06.803Z,6.90
2019-02-26T08:36:13.505Z,7.90
2019-02-26T08:41:17.512Z,8.90
2019-02-26T08:46:21.048Z,10.00
2019-02-26T08:51:25.316Z,10.40
2019-02-26T08:56:30.936Z,11.00
2019-02-26T09:01:33.728Z,12.30
2019-02-26T09:06:38.939Z,12.80
2019-02-26T09:11:42.318Z,13.20
2019-02-26T09:16:47.656Z,13.20
2019-02-26T09:21:54.285Z,12.90
2019-02-26T09:26:58.299Z,13.20
2019-02-26T09:32:06.709Z,13.50
2019-02-26T09:37:09.230Z,14.20
2019-02-26T09:42:13.497Z,15.20
2019-02-26T09:47:21.272Z,17.80
2019-02-26T09:52:27.217Z,19.40
2019-02-26T09:57:29.386Z,20.80
2019-02-26T10:02:33.855Z,22.30
2019-02-26T10:07:38.739Z,24.80
2019-02-26T10:12:42.636Z,23.60
2019-02-26T10:17:47.388Z,21.10
2019-02-26T10:22:52.617Z,19.70
2019-02-26T10:27:55.942Z,19.10
2019-02-26T10:33:02.196Z,19.10
2019-02-26T10:38:06.235Z,18.70
2019-02-26T10:43:09.571Z,18.60
2019-02-26T10:48:13.798Z,18.80
2019-02-26T10:53:20.385Z,18.60
2019-02-26T10:58:24.755Z,17.30
2019-02-26T11:03:29.828Z,17.50
2019-02-26T11:08:35.100Z,18.50
2019-02-26T11:13:40.726Z,18.00
2019-02-26T11:18:45.048Z,18.20
2019-02-26T11:23:48.867Z,18.20
2019-02-26T11:28:52.262Z,19.00
2019-02-26T11:33:57.307Z,19.10
2019-02-26T11:39:02.245Z,18.70
2019-02-26T11:44:09.990Z,18.50
2019-02-26T11:49:11.848Z,19.20
2019-02-26T11:54:18.202Z,19.10
2019-02-26T11:59:21.575Z,18.80
2019-02-26T12:04:24.986Z,19.30
2019-02-26T12:09:32.408Z,19.00
2019-02-26T12:14:37.384Z,20.10
2019-02-26T12:19:39.837Z,19.50
2019-02-26T12:24:44.442Z,20.90
2019-02-26T12:29:48.410Z,21.10
2019-02-26T12:34:52.795Z,22.70
2019-02-26T12:39:57.877Z,22.50
2019-02-26T12:45:06.771Z,22.00
2019-02-26T12:50:16.870Z,22.40
2019-02-26T12:55:22.320Z,20.10
2019-02-26T13:00:26.267Z,18.20
2019-02-26T13:05:29.980Z,16.90
2019-02-26T13:10:33.427Z,15.40
2019-02-26T13:15:38.585Z,14.40
2019-02-26T13:20:42.330Z,14.00
2019-02-26T13:25:46.139Z,13.90
2019-02-26T13:30:49.516Z,13.40
2019-02-26T13:36:00.413Z,12.90
2019-02-26T13:41:20.286Z,12.80
2019-02-26T13:46:02.978Z,12.70
2019-02-26T13:51:07.360Z,12.50
2019-02-26T13:56:10.683Z,12.30
2019-02-26T14:01:14.701Z,12.10
2019-02-26T14:06:18.099Z,11.90
2019-02-26T14:11:21.472Z,11.70
2019-02-26T14:16:26.123Z,11.60
2019-02-26T14:21:30.107Z,11.50
2019-02-26T14:26:34.340Z,11.50
2019-02-26T14:31:37.690Z,11.30
2019-02-26T14:36:41.618Z,11.20
2019-02-26T14:41:45.229Z,11.10
2019-02-26T14:46:48.676Z,11.00
2019-02-26T14:51:53.471Z,10.90
2019-02-26T14:56:58.982Z,10.80
2019-02-26T15:02:03.254Z,10.60
2019-02-26T15:07:06.650Z,10.50
2019-02-26T15:12:11.771Z,10.50
2019-02-26T15:17:15.176Z,10.60
2019-02-26T15:22:20.721Z,10.60
2019-02-26T15:27:24.039Z,10.50
2019-02-26T15:32:27.364Z,10.40
2019-02-26T15:37:32.462Z,10.30
2019-02-26T15:42:36.345Z,10.20
2019-02-26T15:47:39.726Z,10.10
2019-02-26T15:52:43.120Z,9.90
2019-02-26T15:57:46.503Z,9.70
2019-02-26T16:02:51.058Z,9.50
2019-02-26T16:07:54.368Z,9.40
2019-02-26T16:12:59.626Z,9.20
2019-02-26T16:18:03.099Z,9.10
2019-02-26T16:23:07.453Z,8.90
2019-02-26T16:28:10.783Z,8.80
2019-02-26T16:33:24.270Z,8.70
2019-02-26T16:38:28.073Z,8.60
2019-02-26T16:43:31.453Z,8.50
2019-02-26T16:48:34.787Z,8.50
2019-02-26T16:53:42.293Z,8.40
2019-02-26T16:58:46.549Z,8.30
2019-02-26T17:03:49.959Z,8.20
2019-02-26T17:08:53.385Z,8.10
2019-02-26T17:13:57.037Z,8.00
2019-02-26T17:19:00.434Z,8.00
2019-02-26T17:24:12.213Z,7.90
2019-02-26T17:29:16.889Z,7.80
2019-02-26T17:34:23.454Z,7.70
2019-02-26T17:44:39.095Z,7.50
2019-02-26T17:49:44.149Z,7.40
2019-02-26T17:54:49.745Z,7.40
2019-02-26T17:59:58.810Z,7.30
2019-02-26T18:05:02.468Z,7.30
2019-02-26T18:10:12.539Z,7.20
2019-02-26T18:15:16.551Z,7.10
2019-02-26T18:20:20.432Z,7.10
2019-02-26T18:25:24.801Z,7.00
2019-02-26T18:30:43.744Z,7.00
2019-02-26T18:35:49.425Z,6.90
2019-02-26T18:40:52.742Z,6.90
2019-02-26T18:45:56.150Z,6.80
2019-02-26T18:51:02.472Z,6.70
2019-02-26T18:56:07.980Z,6.70
2019-02-26T19:01:11.362Z,6.60
2019-02-26T19:06:24.653Z,6.50
2019-02-26T19:11:31.713Z,6.50
2019-02-26T19:16:35.121Z,6.40
2019-02-26T19:21:38.541Z,6.30
2019-02-26T19:26:46.666Z,6.30
2019-02-26T19:31:50.576Z,6.20
2019-02-26T19:36:56.687Z,6.10
2019-02-26T19:42:01.112Z,6.00
2019-02-26T19:47:09.499Z,5.90
2019-02-26T19:57:39.278Z,5.80
2019-02-26T20:02:43.778Z,5.80
2019-02-26T20:07:47.282Z,5.70
2019-02-26T20:12:51.091Z,5.60
2019-02-26T20:17:56.175Z,5.50
2019-02-26T20:22:59.568Z,5.40
2019-02-26T20:28:05.472Z,5.40
2019-02-26T20:33:08.285Z,5.30
2019-02-26T20:38:14.274Z,5.30
2019-02-26T20:43:18.298Z,5.10
2019-02-26T20:48:21.888Z,5.10
2019-02-26T20:53:25.226Z,5.00
2019-02-26T20:58:30.774Z,5.00
2019-02-26T21:03:35.726Z,4.90
2019-02-26T21:08:39.073Z,4.80
2019-02-26T21:13:42.457Z,4.80
2019-02-26T21:18:47.326Z,4.80
2019-02-26T21:23:52.694Z,4.70
2019-02-26T21:28:56.450Z,4.70
2019-02-26T21:34:03.697Z,4.70
2019-02-26T21:39:06.380Z,4.60
2019-02-26T21:44:09.705Z,4.60
2019-02-26T21:49:13.237Z,4.50
2019-02-26T21:54:16.658Z,4.50
2019-02-26T21:59:20.801Z,4.40
2019-02-26T22:04:24.974Z,4.30
2019-02-26T22:09:30.617Z,4.30
2019-02-26T22:14:36.788Z,4.20
2019-02-26T22:19:41.388Z,4.20
2019-02-26T22:24:47.214Z,4.10
2019-02-26T22:29:50.561Z,4.10
2019-02-26T22:34:54.562Z,4.10
2019-02-26T22:39:57.970Z,4.00
2019-02-26T22:45:01.866Z,3.90
2019-02-26T22:50:07.929Z,3.90
2019-02-26T22:55:16.040Z,3.90
2019-02-26T23:00:55.802Z,3.80
2019-02-26T23:05:59.642Z,3.80
2019-02-26T23:11:07.031Z,3.70
2019-02-26T23:16:34.901Z,3.70
2019-02-26T23:21:38.676Z,3.60
2019-02-26T23:26:42.614Z,3.60
2019-02-26T23:31:47.897Z,3.50
2019-02-26T23:36:51.820Z,3.50
2019-02-26T23:41:56.771Z,3.50
2019-02-26T23:47:02.802Z,3.40
2019-02-26T23:52:07.805Z,3.40
2019-02-26T23:57:14.471Z,3.40
